createdAt,value
2019-01-06T00:02:02.093Z,88.34
2019-01-06T00:04:26.936Z,88.50
2019-01-06T00:06:53.448Z,88.37
2019-01-06T00:09:18.061Z,88.24
2019-01-06T00:12:02.989Z,88.37
2019-01-06T00:14:29.769Z,88.35
2019-01-06T00:17:05.807Z,88.12
2019-01-06T00:19:30.270Z,87.74
2019-01-06T00:21:54.838Z,87.63
2019-01-06T00:24:19.592Z,87.32
2019-01-06T00:26:47.528Z,87.47
2019-01-06T00:29:15.230Z,86.88
2019-01-06T00:31:39.789Z,87.32
2019-01-06T00:34:04.715Z,87.44
2019-01-06T00:36:43.533Z,88.09
2019-01-06T00:39:19.711Z,88.76
2019-01-06T00:41:44.353Z,89.05
2019-01-06T00:44:08.962Z,89.36
2019-01-06T00:46:33.475Z,89.62
2019-01-06T00:48:58.061Z,90.09
2019-01-06T00:51:35.457Z,90.36
2019-01-06T00:54:00.380Z,90.62
2019-01-06T00:56:24.760Z,90.69
2019-01-06T00:58:50.144Z,90.73
2019-01-06T01:01:33.913Z,90.84
2019-01-06T01:03:59.281Z,90.83
2019-01-06T01:06:43.148Z,90.64
2019-01-06T01:12:08.699Z,90.91
2019-01-06T01:14:35.984Z,90.95
2019-01-06T01:17:00.824Z,90.94
2019-01-06T01:19:25.391Z,90.71
2019-01-06T01:22:08.902Z,90.66
2019-01-06T01:24:36.072Z,90.92
2019-01-06T01:27:00.669Z,91.04
2019-01-06T01:29:25.117Z,91.03
2019-01-06T01:32:08.569Z,91.04
2019-01-06T01:34:42.359Z,90.77
2019-01-06T01:37:22.471Z,90.60
2019-01-06T01:39:53.656Z,90.83
2019-01-06T01:42:37.092Z,91.11
2019-01-06T01:45:21.274Z,91.24
2019-01-06T01:47:47.502Z,91.20
2019-01-06T01:50:13.634Z,91.34
2019-01-06T01:52:49.719Z,91.53
2019-01-06T01:55:33.694Z,91.76
2019-01-06T01:57:58.776Z,91.74
2019-01-06T02:00:42.224Z,91.68
2019-01-06T02:03:09.631Z,91.71
2019-01-06T02:05:34.454Z,91.86
2019-01-06T02:08:18.879Z,91.97
2019-01-06T02:10:32.952Z,92.13
2019-01-06T02:12:57.390Z,92.28
2019-01-06T02:15:40.852Z,92.23
2019-01-06T02:18:14.195Z,92.31
2019-01-06T02:20:58.159Z,92.36
2019-01-06T02:23:25.605Z,92.45
2019-01-06T02:26:06.794Z,92.61
2019-01-06T02:28:19.818Z,92.64
2019-01-06T02:31:03.246Z,92.57
2019-01-06T02:33:29.725Z,92.54
2019-01-06T02:35:54.124Z,92.50
2019-01-06T02:38:10.486Z,92.38
2019-01-06T02:40:35.027Z,92.45
2019-01-06T02:42:59.897Z,92.49
2019-01-06T02:45:38.216Z,92.50
2019-01-06T02:48:05.931Z,92.35
2019-01-06T02:50:44.649Z,92.15
2019-01-06T02:53:16.885Z,92.15
2019-01-06T02:55:42.152Z,92.09
2019-01-06T02:58:25.710Z,91.97
2019-01-06T03:00:50.729Z,91.82
2019-01-06T03:03:17.106Z,91.96
2019-01-06T03:05:41.628Z,91.94
2019-01-06T03:08:17.507Z,92.07
2019-01-06T03:10:42.365Z,92.21
2019-01-06T03:13:08.043Z,92.22
2019-01-06T03:15:22.222Z,92.19
2019-01-06T03:17:46.698Z,91.92
2019-01-06T03:20:30.948Z,91.89
2019-01-06T03:22:55.486Z,91.90
2019-01-06T03:25:32.000Z,91.62
2019-01-06T03:27:56.405Z,91.46
2019-01-06T03:30:26.117Z,91.46
2019-01-06T03:32:50.470Z,91.41
2019-01-06T03:35:17.658Z,91.17
2019-01-06T03:37:42.047Z,90.84
2019-01-06T03:40:07.468Z,90.86
2019-01-06T03:42:37.537Z,90.87
2019-01-06T03:45:02.380Z,90.95
2019-01-06T03:47:35.744Z,90.95
2019-01-06T03:50:00.377Z,90.49
2019-01-06T03:52:24.916Z,90.41
2019-01-06T03:54:50.273Z,89.86
2019-01-06T03:57:34.404Z,89.01
2019-01-06T04:00:00.880Z,89.26
2019-01-06T04:02:25.273Z,89.67
2019-01-06T04:05:01.123Z,89.92
2019-01-06T04:07:44.572Z,89.55
2019-01-06T04:10:09.459Z,89.38
2019-01-06T04:12:36.229Z,89.64
2019-01-06T04:15:00.708Z,89.10
2019-01-06T04:17:25.152Z,89.34
2019-01-06T04:20:08.924Z,89.72
2019-01-06T04:22:36.169Z,90.04
2019-01-06T04:25:00.962Z,90.19
2019-01-06T04:29:55.799Z,90.16
2019-01-06T04:32:39.608Z,90.25
2019-01-06T04:35:04.048Z,89.78
2019-01-06T04:37:28.577Z,89.53
2019-01-06T04:40:11.290Z,89.84
2019-01-06T04:42:38.549Z,90.05
2019-01-06T04:45:22.613Z,89.93
2019-01-06T04:47:42.157Z,90.09
2019-01-06T04:50:06.651Z,89.38
2019-01-06T04:52:42.921Z,89.43
2019-01-06T04:55:08.326Z,89.05
2019-01-06T05:00:33.974Z,89.39
2019-01-06T05:05:25.455Z,89.51
2019-01-06T05:07:50.088Z,89.51
2019-01-06T05:10:18.285Z,89.47
2019-01-06T05:12:54.913Z,89.62
2019-01-06T05:15:38.964Z,89.64
2019-01-06T05:18:04.118Z,89.65
2019-01-06T05:20:28.633Z,89.70
2019-01-06T05:23:12.199Z,89.87
2019-01-06T05:25:36.821Z,89.83
2019-01-06T05:28:14.936Z,89.94
2019-01-06T05:30:39.494Z,90.19
2019-01-06T05:33:15.462Z,90.58
2019-01-06T05:35:41.550Z,90.86
2019-01-06T05:38:09.747Z,91.05
2019-01-06T05:40:36.299Z,91.07
2019-01-06T05:43:01.227Z,91.21
2019-01-06T05:48:08.187Z,91.19
2019-01-06T05:50:32.678Z,90.54
2019-01-06T05:52:57.412Z,90.47
2019-01-06T05:55:23.116Z,89.79
2019-01-06T05:57:47.563Z,89.43
2019-01-06T06:00:12.094Z,89.46
2019-01-06T06:02:37.979Z,89.58
2019-01-06T06:05:02.531Z,89.64
2019-01-06T06:07:46.769Z,89.60
2019-01-06T06:10:11.142Z,89.72
2019-01-06T06:12:35.832Z,89.87
2019-01-06T06:15:01.443Z,89.96
2019-01-06T06:17:44.928Z,89.82
2019-01-06T06:20:09.485Z,89.50
2019-01-06T06:22:34.011Z,89.47
2019-01-06T06:24:59.145Z,89.10
2019-01-06T06:27:44.603Z,89.19
2019-01-06T06:30:10.543Z,89.00
2019-01-06T06:32:35.007Z,88.37
2019-01-06T06:35:02.510Z,88.41
2019-01-06T06:37:34.852Z,88.33
2019-01-06T06:39:59.574Z,87.56
2019-01-06T06:42:26.397Z,87.62
2019-01-06T06:44:53.370Z,87.91
2019-01-06T06:47:18.325Z,88.09
2019-01-06T06:50:03.364Z,87.95
2019-01-06T06:52:28.223Z,87.98
2019-01-06T06:58:34.639Z,87.46
2019-01-06T07:03:52.322Z,88.46
2019-01-06T07:06:36.102Z,88.72
2019-01-06T07:11:54.235Z,88.99
2019-01-06T07:14:14.782Z,88.83
2019-01-06T07:16:57.316Z,89.23
2019-01-06T07:19:40.862Z,89.55
2019-01-06T07:22:14.459Z,89.40
2019-01-06T07:24:40.063Z,89.74
2019-01-06T07:27:04.487Z,89.76
2019-01-06T07:29:28.908Z,89.89
2019-01-06T07:32:12.369Z,89.86
2019-01-06T07:34:39.591Z,89.92
2019-01-06T07:37:04.066Z,90.38
2019-01-06T07:39:29.136Z,90.64
2019-01-06T07:41:53.628Z,90.72
2019-01-06T07:44:18.308Z,90.79
2019-01-06T07:46:50.350Z,91.02
2019-01-06T07:49:14.800Z,90.93
2019-01-06T07:51:39.243Z,91.01
2019-01-06T07:54:03.633Z,91.21
2019-01-06T07:56:44.153Z,91.33
2019-01-06T07:59:21.927Z,91.15
2019-01-06T08:02:05.758Z,91.01
2019-01-06T08:04:30.190Z,91.24
2019-01-06T08:06:56.737Z,91.20
